createdAt,value
2022-08-31T00:00:33.848Z,61.48
2022-08-31T00:03:19.465Z,60.91
2022-08-31T00:05:47.693Z,60.52
2022-08-31T00:08:14.733Z,60.87
2022-08-31T00:10:43.245Z,62.00
2022-08-31T00:13:12.736Z,61.62
2022-08-31T00:15:39.784Z,63.69
2022-08-31T00:18:06.858Z,63.57
2022-08-31T00:20:34.789Z,63.63
2022-08-31T00:23:04.127Z,64.45
2022-08-31T00:25:31.654Z,64.49
2022-08-31T00:27:58.812Z,65.69
2022-08-31T00:30:25.792Z,65.26
2022-08-31T00:32:52.749Z,64.49
2022-08-31T00:35:19.537Z,67.58
2022-08-31T00:37:48.108Z,66.87
2022-08-31T00:40:14.936Z,65.57
2022-08-31T00:42:42.833Z,67.36
2022-08-31T00:45:10.452Z,68.65
2022-08-31T00:47:37.454Z,68.72
2022-08-31T00:50:07.721Z,69.58
2022-08-31T00:52:38.270Z,70.07
2022-08-31T00:55:13.683Z,71.21
2022-08-31T00:57:43.608Z,72.11
2022-08-31T01:00:17.882Z,73.10
2022-08-31T01:02:45.087Z,73.48
2022-08-31T01:05:13.315Z,75.10
2022-08-31T01:07:40.968Z,75.76
2022-08-31T01:10:08.640Z,74.85
2022-08-31T01:12:35.451Z,75.61
2022-08-31T01:15:05.876Z,76.25
2022-08-31T01:17:34.307Z,75.22
2022-08-31T01:20:08.193Z,76.45
2022-08-31T01:22:44.823Z,75.54
2022-08-31T01:25:12.121Z,75.21
2022-08-31T01:27:38.798Z,77.22
2022-08-31T01:30:10.409Z,78.29
2022-08-31T01:32:38.643Z,79.45
2022-08-31T01:35:07.448Z,79.54
2022-08-31T01:37:38.868Z,81.04
2022-08-31T01:40:07.438Z,80.92
2022-08-31T01:42:34.635Z,80.07
2022-08-31T01:45:02.474Z,85.39
2022-08-31T01:47:29.328Z,82.00
2022-08-31T01:49:57.652Z,82.25
2022-08-31T01:52:27.697Z,81.82
2022-08-31T01:54:55.954Z,81.91
2022-08-31T01:57:33.347Z,81.85
2022-08-31T02:00:28.783Z,81.26
2022-08-31T02:03:00.421Z,80.24
2022-08-31T02:05:28.368Z,79.03
2022-08-31T02:07:56.942Z,79.51
2022-08-31T02:10:25.106Z,79.04
2022-08-31T02:12:52.295Z,82.90
2022-08-31T02:15:29.385Z,83.35
2022-08-31T02:17:56.611Z,84.60
2022-08-31T02:20:23.692Z,83.56
2022-08-31T02:22:50.819Z,85.01
2022-08-31T02:25:17.847Z,88.38
2022-08-31T02:27:45.046Z,88.78
2022-08-31T02:30:15.540Z,88.98
2022-08-31T02:32:42.427Z,91.96
2022-08-31T02:35:10.279Z,91.56
2022-08-31T02:37:37.345Z,91.91
2022-08-31T02:40:09.032Z,91.08
2022-08-31T02:42:52.925Z,93.00
2022-08-31T02:45:24.666Z,90.94
2022-08-31T02:47:54.299Z,90.32
2022-08-31T02:50:44.467Z,91.59
2022-08-31T02:53:12.894Z,93.72
2022-08-31T02:55:40.572Z,92.39
2022-08-31T02:58:07.289Z,93.73
2022-08-31T03:00:34.492Z,95.42
2022-08-31T03:03:02.936Z,95.84
2022-08-31T03:05:30.449Z,95.27
2022-08-31T03:07:57.204Z,94.69
2022-08-31T03:10:25.385Z,96.80
2022-08-31T03:12:53.376Z,97.01
2022-08-31T03:15:24.072Z,97.13
2022-08-31T03:17:51.473Z,94.17
2022-08-31T03:20:23.000Z,95.28
2022-08-31T03:22:50.728Z,96.76
2022-08-31T03:25:19.903Z,96.49
2022-08-31T03:27:46.809Z,96.79
2022-08-31T03:30:20.171Z,97.00
2022-08-31T03:33:02.404Z,100.00
2022-08-31T03:35:31.975Z,98.44
2022-08-31T03:37:58.804Z,98.69
2022-08-31T03:40:25.748Z,100.00
2022-08-31T03:42:52.775Z,99.64
2022-08-31T03:45:20.226Z,100.00
2022-08-31T03:47:46.953Z,100.00
2022-08-31T03:50:16.210Z,100.00
2022-08-31T03:53:07.478Z,100.00
2022-08-31T03:55:37.047Z,100.00
2022-08-31T03:58:05.274Z,100.00
2022-08-31T04:00:34.234Z,100.00
2022-08-31T04:03:05.941Z,100.00
2022-08-31T04:05:35.845Z,100.00
2022-08-31T04:08:12.280Z,100.00
2022-08-31T04:10:47.463Z,100.00
2022-08-31T04:13:20.145Z,100.00
2022-08-31T04:16:16.665Z,100.00
2022-08-31T04:19:02.817Z,100.00
2022-08-31T04:21:38.697Z,100.00
2022-08-31T04:24:08.181Z,100.00
2022-08-31T04:26:37.426Z,100.00
2022-08-31T04:29:09.605Z,100.00
2022-08-31T04:31:39.155Z,100.00
2022-08-31T04:34:05.861Z,100.00
2022-08-31T04:36:32.800Z,100.00
2022-08-31T04:39:01.044Z,100.00
2022-08-31T04:41:30.941Z,100.00
2022-08-31T04:44:00.116Z,100.00
2022-08-31T04:46:27.813Z,100.00
2022-08-31T04:48:55.634Z,100.00
2022-08-31T04:51:25.925Z,100.00
2022-08-31T04:53:53.533Z,100.00
2022-08-31T04:56:23.353Z,100.00
2022-08-31T04:58:52.573Z,100.00
2022-08-31T05:01:24.739Z,100.00
2022-08-31T05:04:12.486Z,100.00
2022-08-31T05:06:41.509Z,100.00
2022-08-31T05:09:14.974Z,100.00
2022-08-31T05:11:44.726Z,100.00
2022-08-31T05:14:11.757Z,100.00
2022-08-31T05:16:42.928Z,100.00
2022-08-31T05:19:09.906Z,100.00
2022-08-31T05:21:39.750Z,100.00
2022-08-31T05:24:10.202Z,100.00
2022-08-31T05:26:44.456Z,100.00
2022-08-31T05:29:14.181Z,100.00
2022-08-31T05:31:42.325Z,100.00
2022-08-31T05:34:12.614Z,100.00
2022-08-31T05:36:40.077Z,100.00
2022-08-31T05:39:09.474Z,100.00
2022-08-31T05:41:36.432Z,100.00
2022-08-31T05:44:05.258Z,100.00
2022-08-31T05:46:34.813Z,100.00
2022-08-31T05:49:03.876Z,100.00
2022-08-31T05:51:34.922Z,100.00
2022-08-31T05:54:05.117Z,100.00
2022-08-31T05:56:33.045Z,95.31
2022-08-31T05:58:59.975Z,87.86
2022-08-31T06:01:30.396Z,78.82
2022-08-31T06:04:27.636Z,72.55
2022-08-31T06:06:54.797Z,67.36
2022-08-31T06:09:25.022Z,72.20
2022-08-31T06:11:52.336Z,64.50
2022-08-31T06:14:22.853Z,60.28
2022-08-31T06:16:51.085Z,59.02
2022-08-31T06:19:19.912Z,59.11
2022-08-31T06:21:50.928Z,55.58
2022-08-31T06:24:25.979Z,55.02
2022-08-31T06:26:59.154Z,52.10
2022-08-31T06:29:31.616Z,49.99
2022-08-31T06:32:00.540Z,53.53
2022-08-31T06:34:29.277Z,51.11
2022-08-31T06:37:22.147Z,48.39
2022-08-31T06:39:53.811Z,49.13
2022-08-31T06:42:50.131Z,46.65
2022-08-31T06:45:52.358Z,46.61
2022-08-31T06:48:42.151Z,47.56
2022-08-31T06:51:10.321Z,46.65
2022-08-31T06:53:42.422Z,47.40
2022-08-31T06:56:32.438Z,51.87
2022-08-31T06:59:17.726Z,50.70
2022-08-31T07:02:00.299Z,49.70
2022-08-31T07:04:38.468Z,47.26
2022-08-31T07:07:07.203Z,47.07
2022-08-31T07:09:35.890Z,47.01
2022-08-31T07:12:04.188Z,47.64
2022-08-31T07:14:30.921Z,48.96
2022-08-31T07:16:59.927Z,46.61
2022-08-31T07:19:27.509Z,49.83
2022-08-31T07:21:58.514Z,48.62
2022-08-31T07:24:30.418Z,49.71
2022-08-31T07:27:05.356Z,52.59
2022-08-31T07:29:42.228Z,54.97
2022-08-31T07:32:13.919Z,56.47
2022-08-31T07:34:41.828Z,56.97
2022-08-31T07:37:53.124Z,63.23
2022-08-31T07:40:43.211Z,70.59
2022-08-31T07:43:13.099Z,70.35
2022-08-31T07:45:41.113Z,80.39
2022-08-31T07:48:08.822Z,86.96
2022-08-31T07:50:49.578Z,83.87
2022-08-31T07:53:32.351Z,84.17
2022-08-31T07:56:18.050Z,81.96
2022-08-31T07:58:47.954Z,75.78
2022-08-31T08:01:15.322Z,78.81
2022-08-31T08:03:44.095Z,77.16
2022-08-31T08:06:32.462Z,70.34
2022-08-31T08:09:30.079Z,68.78
2022-08-31T08:12:07.394Z,73.35
2022-08-31T08:14:54.783Z,76.94
2022-08-31T08:17:30.070Z,81.12
2022-08-31T08:20:05.340Z,78.30
2022-08-31T08:22:51.549Z,71.67
2022-08-31T08:25:39.094Z,70.54
2022-08-31T08:31:06.707Z,74.14
2022-08-31T08:33:35.514Z,69.61
2022-08-31T08:36:07.828Z,72.80
2022-08-31T08:38:39.644Z,74.47
2022-08-31T08:41:12.479Z,71.18
2022-08-31T08:43:43.779Z,75.17
2022-08-31T08:46:33.838Z,72.82
2022-08-31T08:49:13.431Z,73.68
2022-08-31T08:51:40.929Z,72.81
2022-08-31T08:54:12.381Z,75.79
2022-08-31T08:56:47.143Z,72.19
2022-08-31T08:59:19.974Z,71.04
2022-08-31T09:01:50.792Z,72.95
2022-08-31T09:04:41.248Z,69.42
2022-08-31T09:07:44.478Z,68.33
2022-08-31T09:10:34.527Z,71.04
2022-08-31T09:13:19.967Z,69.23
2022-08-31T09:16:20.628Z,65.52
2022-08-31T09:19:00.196Z,68.51
2022-08-31T09:21:33.636Z,66.16
2022-08-31T09:24:20.126Z,66.18
2022-08-31T09:27:18.774Z,70.09
2022-08-31T09:29:45.481Z,73.26
2022-08-31T09:32:24.751Z,71.67
2022-08-31T09:35:03.782Z,67.57
2022-08-31T09:37:46.206Z,68.92
2022-08-31T09:40:21.150Z,70.86
2022-08-31T09:43:06.549Z,65.65
2022-08-31T09:45:41.294Z,65.87
2022-08-31T09:48:09.470Z,64.72
2022-08-31T09:50:45.107Z,65.00
2022-08-31T09:53:40.966Z,66.01
2022-08-31T09:56:15.741Z,64.58
2022-08-31T09:58:50.475Z,64.36
2022-08-31T10:01:25.265Z,66.48
2022-08-31T10:04:30.125Z,66.18
2022-08-31T10:07:15.485Z,63.68
2022-08-31T10:09:48.789Z,67.47
2022-08-31T10:12:50.563Z,66.21
2022-08-31T10:15:30.963Z,66.11
2022-08-31T10:18:24.541Z,63.38
2022-08-31T10:21:15.276Z,62.49
2022-08-31T10:23:56.612Z,62.83
2022-08-31T10:26:31.874Z,62.09
2022-08-31T10:29:01.520Z,62.29
2022-08-31T10:31:32.043Z,61.57
2022-08-31T10:34:22.935Z,64.57
2022-08-31T10:36:52.971Z,64.30
2022-08-31T10:39:41.304Z,65.35
2022-08-31T10:42:12.348Z,64.69
2022-08-31T10:44:56.852Z,66.03
2022-08-31T10:47:32.878Z,64.48
2022-08-31T10:50:03.528Z,68.00
2022-08-31T10:52:35.174Z,65.66
2022-08-31T10:55:18.459Z,65.32
2022-08-31T10:58:02.906Z,67.97
2022-08-31T11:00:50.053Z,65.95
2022-08-31T11:03:52.863Z,67.36
2022-08-31T11:06:32.960Z,62.52
2022-08-31T11:09:09.284Z,63.46
2022-08-31T11:11:52.019Z,66.00
2022-08-31T11:14:45.349Z,67.83
2022-08-31T11:17:50.331Z,68.23
2022-08-31T11:20:40.975Z,66.59
2022-08-31T11:23:13.809Z,64.41
2022-08-31T11:26:08.223Z,62.69
2022-08-31T11:28:42.209Z,63.49
2022-08-31T11:31:23.771Z,63.42
2022-08-31T11:34:15.602Z,63.25
2022-08-31T11:36:48.970Z,61.44
2022-08-31T11:39:18.931Z,61.43
2022-08-31T11:41:49.146Z,62.70
2022-08-31T11:44:37.051Z,64.75
2022-08-31T11:47:08.308Z,65.16
2022-08-31T11:49:45.265Z,65.18
2022-08-31T11:52:38.322Z,68.04
2022-08-31T11:55:15.212Z,65.22
2022-08-31T11:58:06.498Z,64.10
2022-08-31T12:00:58.252Z,62.64
2022-08-31T12:03:55.717Z,64.13
2022-08-31T12:06:28.615Z,66.75
2022-08-31T12:09:12.040Z,65.48
2022-08-31T12:12:06.784Z,67.75
2022-08-31T12:14:50.195Z,63.60
2022-08-31T12:17:22.788Z,66.57
2022-08-31T12:20:12.799Z,65.72
2022-08-31T12:23:11.937Z,62.97
2022-08-31T12:26:12.464Z,63.42
2022-08-31T12:29:10.260Z,67.92
2022-08-31T12:31:40.363Z,65.40
2022-08-31T12:34:13.542Z,68.07
2022-08-31T12:36:40.460Z,67.16
2022-08-31T12:39:10.104Z,65.84
2022-08-31T12:41:43.756Z,65.98
2022-08-31T12:44:14.266Z,65.38
2022-08-31T12:47:10.679Z,64.30
2022-08-31T12:49:52.820Z,63.27
2022-08-31T12:52:23.038Z,64.00
2022-08-31T12:55:25.438Z,64.75
2022-08-31T12:58:16.659Z,64.28
2022-08-31T13:00:43.996Z,62.11
2022-08-31T13:03:26.139Z,63.41
2022-08-31T13:06:26.604Z,62.85
2022-08-31T13:08:54.339Z,61.04
2022-08-31T13:11:41.707Z,61.40
2022-08-31T13:14:14.146Z,59.41
2022-08-31T13:16:44.135Z,61.23
2022-08-31T13:19:18.832Z,59.32
2022-08-31T13:21:51.090Z,62.39
2022-08-31T13:24:30.890Z,62.23
2022-08-31T13:27:10.434Z,62.10
2022-08-31T13:29:47.145Z,64.49
2022-08-31T13:32:33.699Z,63.57
2022-08-31T13:35:08.320Z,64.48
2022-08-31T13:37:39.658Z,65.17
2022-08-31T13:40:13.144Z,64.10
2022-08-31T13:42:45.650Z,63.42
2022-08-31T13:45:31.350Z,63.33
2022-08-31T13:48:03.913Z,64.19
2022-08-31T13:50:52.650Z,63.21
2022-08-31T13:53:40.258Z,62.41
2022-08-31T13:56:55.428Z,61.05
2022-08-31T13:59:25.144Z,61.68
2022-08-31T14:02:26.053Z,59.90
2022-08-31T14:05:03.322Z,62.30
2022-08-31T14:07:53.951Z,62.33
2022-08-31T14:10:24.362Z,60.94
2022-08-31T14:12:51.855Z,62.66
2022-08-31T14:15:20.317Z,59.37
2022-08-31T14:21:16.785Z,57.42
2022-08-31T14:23:46.561Z,58.34
2022-08-31T14:26:18.677Z,56.37
2022-08-31T14:28:47.996Z,57.48
2022-08-31T14:31:34.883Z,56.47
2022-08-31T14:34:34.003Z,57.94
2022-08-31T14:37:16.734Z,55.88
2022-08-31T14:39:50.557Z,57.88
2022-08-31T14:42:28.757Z,57.23
2022-08-31T14:45:06.271Z,57.46
2022-08-31T14:47:36.244Z,57.45
2022-08-31T14:50:07.803Z,57.36
2022-08-31T14:52:36.954Z,55.45
2022-08-31T14:55:09.058Z,54.35
2022-08-31T14:57:35.986Z,55.64
2022-08-31T15:00:05.152Z,56.43
2022-08-31T15:02:35.739Z,55.78
2022-08-31T15:05:06.438Z,55.36
2022-08-31T15:07:39.287Z,55.22
2022-08-31T15:10:08.314Z,54.59
2022-08-31T15:12:35.852Z,56.89
2022-08-31T15:15:02.997Z,55.35
2022-08-31T15:17:36.213Z,54.09
2022-08-31T15:20:05.917Z,53.36
2022-08-31T15:22:35.110Z,54.02
2022-08-31T15:25:02.050Z,55.18
2022-08-31T15:27:29.111Z,55.70
2022-08-31T15:29:57.226Z,54.42
2022-08-31T15:32:23.950Z,57.08
2022-08-31T15:34:57.792Z,56.07
2022-08-31T15:37:31.970Z,55.87
2022-08-31T15:40:01.114Z,56.98
2022-08-31T15:42:29.682Z,55.73
2022-08-31T15:44:57.078Z,56.59
2022-08-31T15:47:53.965Z,56.75
2022-08-31T15:50:23.320Z,57.69
2022-08-31T15:52:52.306Z,58.74
2022-08-31T15:55:23.401Z,57.54
2022-08-31T15:57:54.309Z,58.98
2022-08-31T16:00:23.754Z,56.56
2022-08-31T16:02:57.451Z,55.44
2022-08-31T16:05:35.732Z,54.60
2022-08-31T16:08:02.996Z,57.14
2022-08-31T16:10:31.129Z,56.17
2022-08-31T16:12:58.045Z,55.56
2022-08-31T16:15:25.791Z,53.88
2022-08-31T16:17:57.189Z,53.61
2022-08-31T16:20:24.177Z,53.66
2022-08-31T16:22:51.153Z,52.96
2022-08-31T16:25:20.322Z,52.79
2022-08-31T16:27:49.222Z,52.10
2022-08-31T16:30:19.141Z,53.63
2022-08-31T16:32:50.376Z,55.75
2022-08-31T16:35:19.498Z,56.69
2022-08-31T16:37:46.255Z,55.80
2022-08-31T16:40:13.832Z,56.36
2022-08-31T16:42:43.162Z,56.25
2022-08-31T16:45:11.318Z,55.80
2022-08-31T16:47:40.692Z,56.92
2022-08-31T16:50:08.847Z,56.91
2022-08-31T16:52:35.961Z,56.88
2022-08-31T16:55:02.762Z,58.40
2022-08-31T16:57:32.582Z,58.05
2022-08-31T17:00:00.127Z,58.56
2022-08-31T17:02:27.495Z,56.96
2022-08-31T17:04:54.838Z,58.21
2022-08-31T17:07:24.143Z,58.44
2022-08-31T17:09:55.886Z,58.23
2022-08-31T17:12:23.215Z,58.18
2022-08-31T17:14:52.862Z,58.54
2022-08-31T17:17:25.331Z,58.45
2022-08-31T17:19:53.166Z,56.61
2022-08-31T17:22:29.881Z,58.21
2022-08-31T17:25:00.156Z,57.12
2022-08-31T17:27:27.462Z,57.25
2022-08-31T17:29:56.331Z,56.54
2022-08-31T17:32:27.278Z,56.88
2022-08-31T17:34:55.495Z,59.31
2022-08-31T17:37:26.425Z,59.41
2022-08-31T17:39:53.949Z,60.16
2022-08-31T17:42:21.952Z,62.23
2022-08-31T17:44:52.135Z,59.78
2022-08-31T17:47:20.860Z,61.40
2022-08-31T17:49:47.658Z,61.85
2022-08-31T17:52:14.607Z,62.80
2022-08-31T17:54:43.296Z,63.14
2022-08-31T17:57:13.673Z,62.26
2022-08-31T17:59:43.388Z,63.72
2022-08-31T18:02:14.755Z,63.49
2022-08-31T18:04:41.738Z,62.22
2022-08-31T18:07:09.183Z,62.08
2022-08-31T18:09:40.310Z,62.65
2022-08-31T18:12:07.971Z,63.48
2022-08-31T18:14:35.951Z,65.48
2022-08-31T18:17:05.050Z,66.34
2022-08-31T18:19:33.327Z,65.36
2022-08-31T18:22:00.065Z,62.94
2022-08-31T18:24:27.997Z,62.16
2022-08-31T18:26:58.076Z,62.19
2022-08-31T18:29:25.320Z,63.14
2022-08-31T18:31:57.147Z,63.03
2022-08-31T18:34:25.207Z,63.96
2022-08-31T18:36:53.590Z,62.81
2022-08-31T18:39:47.599Z,64.90
2022-08-31T18:42:28.412Z,65.42
2022-08-31T18:45:13.717Z,66.83
2022-08-31T18:47:40.460Z,67.12
2022-08-31T18:50:08.358Z,68.49
2022-08-31T18:52:40.295Z,68.77
2022-08-31T18:55:12.642Z,70.81
2022-08-31T18:57:48.747Z,70.14
2022-08-31T19:00:17.685Z,70.09
2022-08-31T19:02:45.381Z,72.52
2022-08-31T19:05:15.502Z,74.16
2022-08-31T19:07:42.593Z,74.11
2022-08-31T19:10:13.069Z,73.91
2022-08-31T19:12:42.667Z,72.83
2022-08-31T19:15:12.170Z,73.26
2022-08-31T19:17:40.205Z,73.12
2022-08-31T19:20:10.302Z,74.59
2022-08-31T19:22:38.279Z,73.40
2022-08-31T19:25:08.017Z,72.90
2022-08-31T19:27:36.661Z,73.73
2022-08-31T19:30:08.290Z,75.76
2022-08-31T19:32:36.808Z,75.12
2022-08-31T19:35:04.243Z,71.89
2022-08-31T19:37:30.971Z,73.05
2022-08-31T19:39:57.754Z,75.13
2022-08-31T19:45:41.129Z,72.86
2022-08-31T19:48:05.434Z,72.00
2022-08-31T19:50:32.171Z,71.88
2022-08-31T19:53:01.667Z,72.16
2022-08-31T19:55:29.178Z,76.12
2022-08-31T19:57:56.199Z,73.01
2022-08-31T20:00:23.141Z,73.39
2022-08-31T20:02:49.908Z,75.18
2022-08-31T20:05:16.908Z,74.91
2022-08-31T20:07:45.356Z,73.53
2022-08-31T20:10:12.671Z,75.24
2022-08-31T20:12:42.772Z,77.48
2022-08-31T20:15:10.150Z,73.44
2022-08-31T20:17:41.355Z,73.55
2022-08-31T20:20:11.957Z,72.37
2022-08-31T20:22:40.418Z,69.38
2022-08-31T20:25:09.124Z,73.43
2022-08-31T20:27:37.894Z,71.13
2022-08-31T20:30:05.631Z,71.32
2022-08-31T20:32:34.926Z,71.04
2022-08-31T20:35:02.557Z,72.30
2022-08-31T20:37:29.736Z,74.68
2022-08-31T20:39:56.840Z,71.93
2022-08-31T20:42:26.633Z,69.46
2022-08-31T20:44:59.919Z,70.62
2022-08-31T20:47:47.706Z,68.47
2022-08-31T20:50:15.353Z,72.41
2022-08-31T20:52:42.519Z,70.13
2022-08-31T20:55:12.412Z,70.59
2022-08-31T20:57:42.166Z,71.99
2022-08-31T21:00:10.596Z,69.98
2022-08-31T21:02:41.074Z,70.83
2022-08-31T21:07:58.011Z,73.83
2022-08-31T21:10:36.883Z,74.72
2022-08-31T21:13:09.275Z,72.11
2022-08-31T21:15:41.917Z,71.85
2022-08-31T21:18:08.871Z,71.69
2022-08-31T21:20:35.602Z,71.51
2022-08-31T21:23:02.515Z,70.35
2022-08-31T21:25:29.598Z,70.89
2022-08-31T21:27:56.940Z,70.87
2022-08-31T21:30:24.711Z,70.04
2022-08-31T21:32:52.618Z,70.34
2022-08-31T21:35:20.396Z,70.35
2022-08-31T21:37:47.189Z,68.52
2022-08-31T21:40:14.095Z,68.29
2022-08-31T21:42:40.979Z,66.47
2022-08-31T21:45:08.027Z,66.56
2022-08-31T21:47:34.961Z,68.17
2022-08-31T21:50:01.813Z,68.45
2022-08-31T21:52:29.224Z,70.52
2022-08-31T21:54:56.256Z,67.91
2022-08-31T21:57:23.654Z,68.93
2022-08-31T21:59:51.121Z,70.01
2022-08-31T22:02:18.011Z,68.16
2022-08-31T22:04:45.037Z,68.01
2022-08-31T22:07:14.470Z,71.12
2022-08-31T22:09:43.269Z,73.50
2022-08-31T22:12:12.510Z,71.58
2022-08-31T22:14:41.382Z,72.83
2022-08-31T22:17:09.416Z,68.79
2022-08-31T22:19:39.083Z,68.89
2022-08-31T22:22:12.204Z,69.96
2022-08-31T22:24:58.407Z,70.06
2022-08-31T22:27:25.725Z,68.71
2022-08-31T22:29:52.730Z,73.32
2022-08-31T22:32:19.516Z,70.68
2022-08-31T22:34:46.710Z,71.58
2022-08-31T22:37:14.254Z,70.81
2022-08-31T22:39:42.564Z,71.65
2022-08-31T22:42:09.985Z,71.74
2022-08-31T22:44:37.746Z,70.87
2022-08-31T22:47:05.001Z,70.13
2022-08-31T22:49:32.186Z,69.25
2022-08-31T22:51:58.965Z,67.77
2022-08-31T22:54:27.118Z,67.39
2022-08-31T22:56:54.591Z,72.86
2022-08-31T22:59:27.367Z,67.29
2022-08-31T23:01:59.266Z,64.53
2022-08-31T23:04:27.702Z,65.68
2022-08-31T23:06:57.647Z,65.79
2022-08-31T23:09:27.866Z,67.08
2022-08-31T23:11:56.039Z,66.90
2022-08-31T23:14:24.359Z,65.47
2022-08-31T23:16:57.932Z,68.01
2022-08-31T23:19:33.391Z,66.73
2022-08-31T23:22:00.930Z,66.33
2022-08-31T23:24:30.916Z,64.79
2022-08-31T23:27:03.797Z,64.11
2022-08-31T23:29:34.476Z,65.62
2022-08-31T23:32:01.508Z,66.49
2022-08-31T23:34:28.363Z,63.58
2022-08-31T23:36:55.647Z,63.33
2022-08-31T23:39:23.668Z,63.69
2022-08-31T23:41:51.028Z,64.09
2022-08-31T23:44:20.530Z,64.00
2022-08-31T23:46:49.211Z,65.96
2022-08-31T23:49:18.740Z,64.88
2022-08-31T23:51:45.997Z,63.78
2022-08-31T23:54:15.813Z,62.88
2022-08-31T23:56:45.971Z,64.84
2022-08-31T23:59:18.812Z,62.37
